createdAt,value
2018-08-11T00:00:30.810Z,1.00
2018-08-11T00:05:34.361Z,1.10
2018-08-11T00:10:37.923Z,0.93
2018-08-11T00:15:41.637Z,0.78
2018-08-11T00:20:45.224Z,0.70
2018-08-11T00:25:48.844Z,0.70
2018-08-11T00:30:52.389Z,0.70
2018-08-11T00:35:55.909Z,0.80
2018-08-11T00:40:59.517Z,0.78
2018-08-11T00:46:03.808Z,0.78
2018-08-11T00:51:07.529Z,0.90
2018-08-11T00:56:11.073Z,0.70
2018-08-11T01:01:14.975Z,0.90
2018-08-11T01:06:18.585Z,0.80
2018-08-11T01:11:22.132Z,0.70
2018-08-11T01:16:25.652Z,0.80
2018-08-11T01:21:29.397Z,0.68
2018-08-11T01:26:33.160Z,0.88
2018-08-11T01:31:36.756Z,0.90
2018-08-11T01:36:40.495Z,0.90
2018-08-11T01:41:44.052Z,0.80
2018-08-11T01:46:47.573Z,0.80
2018-08-11T01:51:51.162Z,0.80
2018-08-11T01:56:54.862Z,0.68
2018-08-11T02:01:58.389Z,1.00
2018-08-11T02:07:02.075Z,0.90
2018-08-11T02:12:05.820Z,0.85
2018-08-11T02:17:09.385Z,0.90
2018-08-11T02:22:12.968Z,1.10
2018-08-11T02:27:16.510Z,0.93
2018-08-11T02:32:20.015Z,0.70
2018-08-11T02:37:23.682Z,0.90
2018-08-11T02:42:27.229Z,1.02
2018-08-11T02:47:30.849Z,1.00
2018-08-11T02:52:34.447Z,0.98
2018-08-11T02:57:37.939Z,0.88
2018-08-11T03:02:41.605Z,0.90
2018-08-11T03:07:45.286Z,1.02
2018-08-11T03:12:48.865Z,1.02
2018-08-11T03:17:52.378Z,1.80
2018-08-11T03:22:56.840Z,1.17
2018-08-11T03:28:00.441Z,1.20
2018-08-11T03:33:03.981Z,1.10
2018-08-11T03:38:07.997Z,0.98
2018-08-11T03:43:11.560Z,1.22
2018-08-11T03:48:15.111Z,1.75
2018-08-11T03:53:18.633Z,1.30
2018-08-11T03:58:22.774Z,1.45
2018-08-11T04:03:26.385Z,1.90
2018-08-11T04:08:30.077Z,1.30
2018-08-11T04:13:33.626Z,1.25
2018-08-11T04:18:37.137Z,1.20
2018-08-11T04:23:40.641Z,1.17
2018-08-11T04:28:44.221Z,1.10
2018-08-11T04:33:47.816Z,1.45
2018-08-11T04:38:51.334Z,1.47
2018-08-11T04:43:54.845Z,1.27
2018-08-11T04:48:58.410Z,1.07
2018-08-11T04:54:01.995Z,1.12
2018-08-11T04:59:05.547Z,1.35
2018-08-11T05:04:09.018Z,1.40
2018-08-11T05:09:12.836Z,1.47
2018-08-11T05:14:16.662Z,1.50
2018-08-11T05:19:20.159Z,1.40
2018-08-11T05:24:24.562Z,1.25
2018-08-11T05:29:28.142Z,1.55
2018-08-11T05:34:31.748Z,1.57
2018-08-11T05:39:35.291Z,1.40
2018-08-11T05:44:38.813Z,1.50
2018-08-11T05:49:42.323Z,1.40
2018-08-11T05:54:45.754Z,1.20
2018-08-11T05:59:49.395Z,1.20
2018-08-11T06:04:52.998Z,1.85
2018-08-11T06:15:12.331Z,1.32
2018-08-11T06:20:15.965Z,1.37
2018-08-11T06:25:19.563Z,1.15
2018-08-11T06:30:23.133Z,1.30
2018-08-11T06:35:27.496Z,0.93
2018-08-11T06:40:31.908Z,1.02
2018-08-11T06:45:35.574Z,0.90
2018-08-11T06:50:39.057Z,0.98
2018-08-11T06:55:42.639Z,0.90
2018-08-11T07:00:46.137Z,1.10
2018-08-11T07:05:49.688Z,0.90
2018-08-11T07:10:53.211Z,0.80
2018-08-11T07:15:56.849Z,0.85
2018-08-11T07:21:00.384Z,1.30
2018-08-11T07:26:03.950Z,0.85
2018-08-11T07:31:07.492Z,0.85
2018-08-11T07:36:11.075Z,1.07
2018-08-11T07:41:14.652Z,0.90
2018-08-11T07:46:18.651Z,1.40
2018-08-11T07:51:22.325Z,1.22
2018-08-11T07:56:25.825Z,0.80
2018-08-11T08:01:29.524Z,0.72
2018-08-11T08:11:39.809Z,0.60
2018-08-11T08:16:43.626Z,0.95
2018-08-11T08:21:47.154Z,0.90
2018-08-11T08:26:50.801Z,0.78
2018-08-11T08:31:54.901Z,0.70
2018-08-11T08:36:59.007Z,0.53
2018-08-11T08:42:02.784Z,0.80
2018-08-11T08:47:06.540Z,0.60
2018-08-11T08:52:10.260Z,0.70
2018-08-11T08:57:13.852Z,0.88
2018-08-11T09:02:17.649Z,0.72
2018-08-11T09:07:21.326Z,0.70
2018-08-11T09:12:25.058Z,0.80
2018-08-11T09:17:28.633Z,0.70
2018-08-11T09:22:38.484Z,0.88
2018-08-11T09:27:42.096Z,0.70
2018-08-11T09:32:51.981Z,0.82
2018-08-11T09:37:55.551Z,0.70
2018-08-11T09:42:59.383Z,1.00
2018-08-11T09:48:02.939Z,1.00
2018-08-11T09:53:06.699Z,1.00
2018-08-11T09:58:10.326Z,0.88
2018-08-11T10:03:13.953Z,1.07
2018-08-11T10:08:17.437Z,1.12
2018-08-11T10:13:21.014Z,0.82
2018-08-11T10:18:24.711Z,0.90
2018-08-11T10:23:28.242Z,1.15
2018-08-11T10:28:32.058Z,0.93
2018-08-11T10:33:35.647Z,0.90
2018-08-11T10:38:39.266Z,0.85
2018-08-11T10:43:42.819Z,0.70
2018-08-11T10:48:46.492Z,1.00
2018-08-11T10:53:50.122Z,0.80
2018-08-11T10:58:53.736Z,1.57
2018-08-11T11:03:57.386Z,0.90
2018-08-11T11:09:01.033Z,0.78
2018-08-11T11:14:04.704Z,0.80
2018-08-11T11:19:09.594Z,0.82
2018-08-11T11:24:13.223Z,1.12
2018-08-11T11:29:16.789Z,1.00
2018-08-11T11:34:22.501Z,0.80
2018-08-11T11:39:28.158Z,0.82
2018-08-11T11:44:31.725Z,0.70
2018-08-11T11:49:35.271Z,0.70
2018-08-11T11:54:38.855Z,0.65
2018-08-11T11:59:42.422Z,1.20
2018-08-11T12:04:46.649Z,1.02
2018-08-11T12:09:50.237Z,0.50
2018-08-11T12:14:53.993Z,0.80
2018-08-11T12:19:59.585Z,0.70
2018-08-11T12:25:03.416Z,0.60
2018-08-11T12:30:09.200Z,0.70
2018-08-11T12:35:12.863Z,0.80
2018-08-11T12:40:16.407Z,0.68
2018-08-11T12:45:20.015Z,0.63
2018-08-11T12:50:23.647Z,0.62
2018-08-11T12:55:27.155Z,1.00
2018-08-11T13:00:36.105Z,0.73
2018-08-11T13:05:39.674Z,0.65
2018-08-11T13:10:43.197Z,0.75
2018-08-11T13:15:46.833Z,0.65
2018-08-11T13:20:50.479Z,0.80
2018-08-11T13:25:54.044Z,0.65
2018-08-11T13:30:57.613Z,0.53
2018-08-11T13:36:01.154Z,0.70
2018-08-11T13:41:04.689Z,0.53
2018-08-11T13:46:08.297Z,0.50
2018-08-11T13:51:11.856Z,0.70
2018-08-11T13:56:15.982Z,0.60
2018-08-11T14:01:19.531Z,0.68
2018-08-11T14:06:23.091Z,0.75
2018-08-11T14:11:26.645Z,0.90
2018-08-11T14:16:30.198Z,0.80
2018-08-11T14:21:34.296Z,0.80
2018-08-11T14:26:38.016Z,1.00
2018-08-11T14:31:48.127Z,0.75
2018-08-11T14:36:51.688Z,0.90
2018-08-11T14:41:56.115Z,0.95
2018-08-11T14:46:59.838Z,0.80
2018-08-11T14:52:03.737Z,0.90
2018-08-11T14:57:07.344Z,0.95
2018-08-11T15:02:11.047Z,0.70
2018-08-11T15:07:15.504Z,1.12
2018-08-11T15:12:19.055Z,1.05
2018-08-11T15:17:22.948Z,1.00
2018-08-11T15:22:27.529Z,0.98
2018-08-11T15:27:31.393Z,0.90
2018-08-11T15:32:34.936Z,0.90
2018-08-11T15:37:38.670Z,0.95
2018-08-11T15:42:42.245Z,0.98
2018-08-11T15:47:45.848Z,0.85
2018-08-11T15:52:49.424Z,1.25
2018-08-11T15:57:52.998Z,0.88
2018-08-11T16:02:56.540Z,1.20
2018-08-11T16:08:00.417Z,0.90
2018-08-11T16:13:04.171Z,0.80
2018-08-11T16:18:07.841Z,0.93
2018-08-11T16:23:12.002Z,0.93
2018-08-11T16:28:15.522Z,1.00
2018-08-11T16:33:19.038Z,0.95
2018-08-11T16:38:22.622Z,0.85
2018-08-11T16:43:26.346Z,0.90
2018-08-11T16:48:30.072Z,0.90
2018-08-11T16:53:33.593Z,0.80
2018-08-11T16:58:37.190Z,0.80
2018-08-11T17:03:41.555Z,0.80
2018-08-11T17:08:45.357Z,0.80
2018-08-11T17:13:49.881Z,0.60
2018-08-11T17:18:53.693Z,0.80
2018-08-11T17:23:57.308Z,0.90
2018-08-11T17:29:00.791Z,0.85
2018-08-11T17:34:04.716Z,0.72
2018-08-11T17:39:10.066Z,0.90
2018-08-11T17:44:13.610Z,0.70
2018-08-11T17:49:17.371Z,0.78
2018-08-11T17:54:20.860Z,0.75
2018-08-11T17:59:24.361Z,1.17
2018-08-11T18:04:28.680Z,1.00
2018-08-11T18:09:32.334Z,0.80
2018-08-11T18:14:35.917Z,0.80
2018-08-11T18:19:39.903Z,0.70
2018-08-11T18:24:43.793Z,0.70
2018-08-11T18:29:47.330Z,1.02
2018-08-11T18:34:51.063Z,0.80
2018-08-11T18:39:54.905Z,0.80
2018-08-11T18:44:58.769Z,1.22
2018-08-11T18:50:02.624Z,1.15
2018-08-11T18:55:08.124Z,0.75
2018-08-11T19:00:17.694Z,0.80
2018-08-11T19:05:21.801Z,1.55
2018-08-11T19:10:25.616Z,2.58
2018-08-11T19:15:29.698Z,0.90
2018-08-11T19:20:33.540Z,0.80
2018-08-11T19:25:38.067Z,0.90
2018-08-11T19:30:41.485Z,0.80
2018-08-11T19:35:45.022Z,0.80
2018-08-11T19:40:48.601Z,1.32
2018-08-11T19:45:53.677Z,1.00
2018-08-11T19:50:57.300Z,1.00
2018-08-11T19:56:01.030Z,1.17
2018-08-11T20:01:04.497Z,1.00
2018-08-11T20:06:08.101Z,0.98
2018-08-11T20:11:12.216Z,1.10
2018-08-11T20:16:16.352Z,1.00
2018-08-11T20:21:19.886Z,1.10
2018-08-11T20:26:24.829Z,1.10
2018-08-11T20:31:29.686Z,1.17
2018-08-11T20:36:33.666Z,1.25
2018-08-11T20:41:37.613Z,1.40
2018-08-11T20:46:41.489Z,1.40
2018-08-11T20:51:45.117Z,1.32
2018-08-11T20:56:48.670Z,1.42
2018-08-11T21:01:53.436Z,1.50
2018-08-11T21:06:57.224Z,1.45
2018-08-11T21:12:00.722Z,1.60
2018-08-11T21:17:06.490Z,1.62
2018-08-11T21:22:12.564Z,1.80
2018-08-11T21:27:17.181Z,1.52
2018-08-11T21:32:22.962Z,1.50
2018-08-11T21:37:28.807Z,1.62
2018-08-11T21:42:34.230Z,2.02
2018-08-11T21:47:38.805Z,1.80
2018-08-11T21:52:44.997Z,2.30
2018-08-11T21:57:52.111Z,2.72
2018-08-11T22:02:57.412Z,2.90
2018-08-11T22:08:02.778Z,2.17
2018-08-11T22:13:06.524Z,1.87
2018-08-11T22:18:10.113Z,2.00
2018-08-11T22:23:13.974Z,1.50
2018-08-11T22:28:17.805Z,1.57
2018-08-11T22:33:21.484Z,1.70
2018-08-11T22:38:25.126Z,1.60
2018-08-11T22:43:28.772Z,1.75
2018-08-11T22:48:32.501Z,1.90
2018-08-11T22:53:36.240Z,2.25
2018-08-11T22:58:39.865Z,1.72
2018-08-11T23:03:43.352Z,2.08
2018-08-11T23:08:46.897Z,2.90
2018-08-11T23:13:50.341Z,2.22
2018-08-11T23:18:53.792Z,3.03
2018-08-11T23:23:57.265Z,2.87
2018-08-11T23:29:00.854Z,2.47
2018-08-11T23:34:04.312Z,2.55
2018-08-11T23:39:08.646Z,2.30
2018-08-11T23:44:12.217Z,2.37
2018-08-11T23:49:15.673Z,2.20
2018-08-11T23:54:19.192Z,1.90
2018-08-11T23:59:22.744Z,1.93
